Time;durP1;ratioP1;P1;durP2;ratioP2;P2;SDS_P1;SDS_P2;PMS_P1;PMS_P2;Temp;Humidity;BMP_temperature;BMP_pressure;BME280_temperature;BME280_humidity;BME280_pressure;Samples;Min_cycle;Max_cycle;Signal;HPM_P1;HPM_P2
2022/03/05 00:00:20;;;;;;;16.30;8.87;;;2.60;99.90;;;;;;4871124;29;20395;-80
2022/03/05 00:03:04;;;;;;;17.10;8.90;;;2.50;99.90;;;;;;4872149;29;20421;-82
2022/03/05 00:05:49;;;;;;;25.00;11.33;;;2.50;99.90;;;;;;4869491;29;20933;-82
2022/03/05 00:08:34;;;;;;;17.27;9.30;;;2.50;99.90;;;;;;4869234;29;20471;-82
2022/03/05 00:11:18;;;;;;;19.27;9.20;;;2.40;99.90;;;;;;4869284;29;20417;-82
2022/03/05 00:14:03;;;;;;;18.53;10.13;;;2.50;99.90;;;;;;4869269;29;20406;-82
2022/03/05 00:16:47;;;;;;;21.37;9.97;;;2.50;99.90;;;;;;4867863;29;20392;-82
2022/03/05 00:19:31;;;;;;;18.20;9.00;;;2.40;99.90;;;;;;4868539;29;20916;-82
2022/03/05 00:22:16;;;;;;;19.83;10.37;;;2.40;99.90;;;;;;4868212;29;20458;-82
2022/03/05 00:25:01;;;;;;;18.07;9.87;;;2.30;99.90;;;;;;4868699;29;20441;-82
2022/03/05 00:27:46;;;;;;;24.20;11.10;;;2.40;99.90;;;;;;4869581;29;20888;-82
2022/03/05 00:30:30;;;;;;;13.20;9.37;;;2.50;99.90;;;;;;4871197;29;20451;-82
2022/03/05 00:33:15;;;;;;;22.93;9.43;;;2.50;99.90;;;;;;4868446;29;20394;-82
2022/03/05 00:36:00;;;;;;;13.53;7.53;;;2.50;99.90;;;;;;4869151;29;20399;-82
2022/03/05 00:38:45;;;;;;;15.30;9.73;;;2.50;99.90;;;;;;4880661;29;20920;-82
2022/03/05 00:41:30;;;;;;;12.83;9.30;;;2.50;99.90;;;;;;4868294;29;20479;-82
2022/03/05 00:44:14;;;;;;;13.80;8.30;;;2.50;99.90;;;;;;4868025;29;20901;-82
2022/03/05 00:46:59;;;;;;;18.53;8.57;;;2.50;99.90;;;;;;4879488;29;20428;-82
2022/03/05 00:49:44;;;;;;;14.50;7.73;;;2.40;99.90;;;;;;4867648;29;20752;-82
2022/03/05 00:52:30;;;;;;;11.90;7.90;;;2.30;99.90;;;;;;4868298;29;20480;-82
2022/03/05 00:55:14;;;;;;;12.63;9.50;;;2.30;99.90;;;;;;4867820;29;20448;-82
2022/03/05 00:57:59;;;;;;;18.07;9.93;;;2.30;99.90;;;;;;4868450;29;20466;-82
2022/03/05 01:00:44;;;;;;;17.00;9.63;;;2.30;99.90;;;;;;4868887;29;20484;-82
2022/03/05 01:03:28;;;;;;;16.93;10.83;;;2.40;99.90;;;;;;4866713;29;20433;-83
2022/03/05 01:06:13;;;;;;;16.60;10.40;;;2.50;99.90;;;;;;4868641;29;20398;-83
2022/03/05 01:08:59;;;;;;;13.47;6.70;;;2.40;99.90;;;;;;4868506;29;20447;-83
2022/03/05 01:11:43;;;;;;;13.73;9.53;;;2.30;99.90;;;;;;4867037;29;20443;-82
2022/03/05 01:14:28;;;;;;;16.03;8.50;;;2.30;99.90;;;;;;4868692;29;20427;-83
2022/03/05 01:17:13;;;;;;;12.10;8.90;;;2.30;99.90;;;;;;4868366;29;20404;-82
2022/03/05 01:19:58;;;;;;;17.40;9.57;;;2.40;99.90;;;;;;4880623;29;20798;-83
2022/03/05 01:22:42;;;;;;;20.70;10.50;;;2.40;99.90;;;;;;4869201;29;21012;-83
2022/03/05 01:25:28;;;;;;;15.57;9.10;;;2.30;99.90;;;;;;4868760;29;20407;-83
2022/03/05 01:28:13;;;;;;;17.10;9.73;;;2.30;99.90;;;;;;4868427;29;20475;-83
2022/03/05 01:30:58;;;;;;;12.60;8.50;;;2.30;99.90;;;;;;4868067;29;20418;-82
2022/03/05 01:33:42;;;;;;;24.37;11.27;;;2.30;99.90;;;;;;4868409;29;20394;-83
2022/03/05 01:36:27;;;;;;;16.90;9.60;;;2.30;99.90;;;;;;4868213;29;20406;-83
2022/03/05 01:39:12;;;;;;;19.97;10.17;;;2.20;99.90;;;;;;4880315;29;20406;-82
2022/03/05 01:41:56;;;;;;;18.77;10.03;;;2.30;99.90;;;;;;4868425;29;20483;-82
2022/03/05 01:44:41;;;;;;;12.47;8.17;;;2.30;99.90;;;;;;4868167;29;20754;-83
2022/03/05 01:47:25;;;;;;;15.27;8.60;;;2.20;99.90;;;;;;4868338;29;20527;-83
2022/03/05 01:50:10;;;;;;;24.10;11.20;;;2.30;99.90;;;;;;4880651;29;20443;-83
2022/03/05 01:52:54;;;;;;;28.87;10.10;;;2.20;99.90;;;;;;4870084;29;20395;-83
2022/03/05 01:55:39;;;;;;;16.10;9.30;;;2.20;99.90;;;;;;4879854;29;20453;-81
2022/03/05 01:58:24;;;;;;;15.17;7.60;;;2.20;99.90;;;;;;4882408;29;20454;-80
2022/03/05 02:01:09;;;;;;;20.93;9.60;;;2.10;99.90;;;;;;4882624;29;20477;-81
2022/03/05 02:03:54;;;;;;;17.33;8.90;;;2.20;99.90;;;;;;4882316;29;20565;-83
2022/03/05 02:06:39;;;;;;;12.67;7.80;;;2.20;99.90;;;;;;4882702;29;20468;-81
2022/03/05 02:09:24;;;;;;;19.20;10.60;;;2.20;99.90;;;;;;4888507;29;20418;-81
2022/03/05 02:12:09;;;;;;;11.57;7.37;;;2.20;99.90;;;;;;4888706;29;20488;-81
2022/03/05 02:14:54;;;;;;;14.17;10.30;;;2.10;99.90;;;;;;4888528;29;20425;-81
2022/03/05 02:17:39;;;;;;;17.97;10.60;;;2.10;99.90;;;;;;4901351;29;20504;-80
2022/03/05 02:20:24;;;;;;;16.73;10.07;;;2.00;99.90;;;;;;4886986;29;20369;-81
2022/03/05 02:23:08;;;;;;;14.30;9.07;;;2.00;99.90;;;;;;4872346;29;20399;-82
2022/03/05 02:25:55;;;;;;;26.63;10.20;;;1.90;99.90;;;;;;4873104;29;20448;-81
2022/03/05 02:28:39;;;;;;;13.57;9.67;;;1.90;99.90;;;;;;4884829;29;20403;-82
2022/03/05 02:31:24;;;;;;;19.93;9.27;;;1.90;99.90;;;;;;4873020;29;20411;-82
2022/03/05 02:34:08;;;;;;;20.57;7.97;;;1.90;99.90;;;;;;4885376;29;20386;-83
2022/03/05 02:36:53;;;;;;;18.43;9.03;;;1.80;99.90;;;;;;4872947;29;20403;-83
2022/03/05 02:39:37;;;;;;;17.80;8.13;;;1.80;99.90;;;;;;4875704;29;20415;-83
2022/03/05 02:42:22;;;;;;;11.43;7.07;;;1.80;99.90;;;;;;4874029;29;20454;-83
2022/03/05 02:45:09;;;;;;;21.13;10.53;;;1.80;99.90;;;;;;4873403;29;20508;-83
2022/03/05 02:47:55;;;;;;;22.90;11.13;;;1.70;99.90;;;;;;4874404;29;20398;-83
2022/03/05 02:50:42;;;;;;;13.40;8.27;;;1.70;99.90;;;;;;4880829;29;20411;-83
2022/03/05 02:53:26;;;;;;;20.87;8.33;;;1.70;99.90;;;;;;4887712;29;20414;-83
2022/03/05 02:56:11;;;;;;;13.20;8.37;;;1.70;99.90;;;;;;4887787;29;20522;-82
2022/03/05 02:58:56;;;;;;;18.70;9.57;;;1.60;99.90;;;;;;4888110;29;20467;-83
2022/03/05 03:01:41;;;;;;;17.67;10.60;;;1.70;99.90;;;;;;4887923;29;20514;-83
2022/03/05 03:04:27;;;;;;;14.57;9.27;;;1.70;99.90;;;;;;4900477;29;20411;-82
2022/03/05 03:07:15;;;;;;;10.23;9.20;;;1.70;99.90;;;;;;4900746;29;20459;-82
2022/03/05 03:10:01;;;;;;;10.60;8.70;;;1.60;99.90;;;;;;4900100;29;20402;-81
2022/03/05 03:12:46;;;;;;;19.03;10.93;;;1.60;99.90;;;;;;4873632;29;20414;-82
2022/03/05 03:15:30;;;;;;;19.70;8.70;;;1.60;99.90;;;;;;4872140;29;20404;-83
2022/03/05 03:18:18;;;;;;;15.90;9.03;;;1.60;99.90;;;;;;4875338;29;20387;-82
2022/03/05 03:21:03;;;;;;;17.87;8.57;;;1.50;99.90;;;;;;4869053;29;20449;-82
2022/03/05 03:23:51;;;;;;;7.60;6.70;;;1.50;99.90;;;;;;4870702;29;20383;-83
2022/03/05 03:26:36;;;;;;;27.03;11.00;;;1.50;99.90;;;;;;4870425;29;20421;-83
2022/03/05 03:29:20;;;;;;;18.80;9.30;;;1.40;99.90;;;;;;4870319;29;20448;-82
2022/03/05 03:32:06;;;;;;;22.67;10.60;;;1.40;99.90;;;;;;4871008;29;20487;-82
2022/03/05 03:34:51;;;;;;;19.43;10.03;;;1.30;99.90;;;;;;4869989;29;20452;-81
2022/03/05 03:37:36;;;;;;;20.40;9.03;;;1.40;99.90;;;;;;4869558;29;20443;-81
2022/03/05 03:40:21;;;;;;;17.77;10.37;;;1.30;99.90;;;;;;4869918;29;20525;-81
2022/03/05 03:43:06;;;;;;;15.07;7.77;;;1.30;99.90;;;;;;4869331;29;20383;-80
2022/03/05 03:45:50;;;;;;;9.67;6.83;;;1.30;99.90;;;;;;4869459;29;20436;-81
2022/03/05 03:48:36;;;;;;;17.87;8.83;;;1.40;99.90;;;;;;4869412;29;20387;-81
2022/03/05 03:51:20;;;;;;;19.03;8.97;;;1.30;99.90;;;;;;4882037;29;20877;-83
2022/03/05 03:54:05;;;;;;;13.43;8.60;;;1.30;99.90;;;;;;4869966;29;20391;-83
2022/03/05 03:56:50;;;;;;;22.13;9.00;;;1.30;99.90;;;;;;4870178;29;20369;-83
2022/03/05 03:59:35;;;;;;;16.53;8.63;;;1.30;99.90;;;;;;4870798;29;20414;-83
2022/03/05 04:02:21;;;;;;;14.20;8.13;;;1.30;99.90;;;;;;4871358;29;20461;-83
2022/03/05 04:05:07;;;;;;;14.40;8.07;;;1.30;99.90;;;;;;4870857;29;20370;-82
2022/03/05 04:10:52;;;;;;;11.23;6.67;;;1.20;99.90;;;;;;4869249;29;20487;-82
2022/03/05 04:13:38;;;;;;;13.87;10.67;;;1.20;99.90;;;;;;4869354;29;20402;-82
2022/03/05 04:16:23;;;;;;;13.53;7.60;;;1.10;99.90;;;;;;4868834;29;20407;-82
2022/03/05 04:19:07;;;;;;;13.30;6.60;;;1.10;99.90;;;;;;4881430;29;20418;-82
2022/03/05 04:21:52;;;;;;;8.63;6.90;;;1.10;99.90;;;;;;4881342;29;20944;-82
2022/03/05 04:24:36;;;;;;;18.80;8.80;;;1.10;99.90;;;;;;4869973;29;20391;-82
2022/03/05 04:27:21;;;;;;;23.10;11.47;;;1.10;99.90;;;;;;4869177;29;20426;-82
2022/03/05 04:30:07;;;;;;;14.13;8.60;;;1.20;99.90;;;;;;4867572;29;20391;-82
2022/03/05 04:32:51;;;;;;;17.30;9.30;;;1.20;99.90;;;;;;4868816;29;20407;-82
2022/03/05 04:35:36;;;;;;;18.13;9.03;;;1.20;99.90;;;;;;4869785;29;20458;-82
2022/03/05 04:38:20;;;;;;;23.13;10.60;;;1.20;99.90;;;;;;4868998;29;20543;-82
2022/03/05 04:41:05;;;;;;;19.90;8.70;;;1.20;99.90;;;;;;4881320;29;20443;-82
2022/03/05 04:43:50;;;;;;;9.30;7.20;;;1.00;99.90;;;;;;4867894;29;20417;-82
2022/03/05 04:46:34;;;;;;;9.03;7.43;;;1.00;99.90;;;;;;4867298;29;20438;-82
2022/03/05 04:49:19;;;;;;;12.67;7.10;;;1.00;99.90;;;;;;4850310;29;20367;-83
2022/03/05 04:52:04;;;;;;;15.87;9.40;;;1.00;99.90;;;;;;4851125;29;20719;-83
2022/03/05 04:54:48;;;;;;;21.00;8.40;;;1.10;99.90;;;;;;4850676;29;20435;-82
2022/03/05 04:57:33;;;;;;;15.00;9.77;;;1.10;99.90;;;;;;4850730;29;20459;-83
2022/03/05 05:00:18;;;;;;;12.67;9.17;;;1.00;99.90;;;;;;4849771;29;20399;-82
2022/03/05 05:03:02;;;;;;;17.63;8.60;;;1.00;99.90;;;;;;4849841;29;20422;-83
2022/03/05 05:05:47;;;;;;;14.43;8.57;;;1.10;99.90;;;;;;4850269;29;20455;-82
2022/03/05 05:08:31;;;;;;;14.37;7.93;;;1.10;99.90;;;;;;4849843;29;20388;-82
2022/03/05 05:11:16;;;;;;;13.87;9.77;;;1.10;99.90;;;;;;4850374;29;20441;-82
2022/03/05 05:14:00;;;;;;;15.57;9.40;;;1.30;99.90;;;;;;4850093;29;20971;-82
2022/03/05 05:16:45;;;;;;;24.63;8.50;;;1.20;99.90;;;;;;4850252;29;20428;-82
2022/03/05 05:19:30;;;;;;;16.90;9.30;;;1.30;99.90;;;;;;4849411;29;20388;-83
2022/03/05 05:22:14;;;;;;;6.77;6.17;;;1.30;99.90;;;;;;4849820;29;20451;-83
2022/03/05 05:25:00;;;;;;;15.97;9.23;;;1.30;99.90;;;;;;4849666;29;20506;-82
2022/03/05 05:27:45;;;;;;;15.37;8.10;;;1.40;99.90;;;;;;4849219;29;20392;-83
2022/03/05 05:30:29;;;;;;;16.80;9.20;;;1.40;99.90;;;;;;4849765;29;20407;-82
2022/03/05 05:33:14;;;;;;;16.30;9.83;;;1.50;99.90;;;;;;4849399;29;20400;-82
2022/03/05 05:35:59;;;;;;;22.57;10.47;;;1.40;99.90;;;;;;4850386;29;20953;-83
2022/03/05 05:38:43;;;;;;;11.47;8.83;;;1.50;99.90;;;;;;4849687;29;20454;-83
2022/03/05 05:41:28;;;;;;;13.00;9.37;;;1.40;99.90;;;;;;4849893;29;20429;-83
2022/03/05 05:44:12;;;;;;;13.00;9.70;;;1.40;99.90;;;;;;4852775;29;20473;-83
2022/03/05 05:46:57;;;;;;;23.00;8.60;;;1.40;99.90;;;;;;4851126;29;20893;-83
2022/03/05 05:49:41;;;;;;;17.40;8.97;;;1.30;99.90;;;;;;4852257;29;20404;-82
2022/03/05 05:52:26;;;;;;;17.23;8.93;;;1.40;99.90;;;;;;4861149;29;20366;-82
2022/03/05 05:55:11;;;;;;;12.47;9.47;;;1.50;99.90;;;;;;4849458;29;20453;-82
2022/03/05 05:57:55;;;;;;;14.33;8.40;;;1.40;99.90;;;;;;4849114;29;20454;-83
2022/03/05 06:00:40;;;;;;;12.57;8.03;;;1.40;99.90;;;;;;4849563;29;20404;-82
2022/03/05 06:03:25;;;;;;;13.27;10.40;;;1.50;99.90;;;;;;4849332;29;20396;-82
2022/03/05 06:06:09;;;;;;;24.07;9.87;;;1.50;99.90;;;;;;4848182;29;20412;-84
2022/03/05 06:08:54;;;;;;;13.80;6.77;;;1.50;99.90;;;;;;4848758;29;20395;-81
2022/03/05 06:11:38;;;;;;;13.03;9.07;;;1.50;99.90;;;;;;4849219;29;20404;-80
2022/03/05 06:14:23;;;;;;;15.53;8.40;;;1.60;99.90;;;;;;4849374;29;20396;-82
2022/03/05 06:17:08;;;;;;;13.40;8.60;;;1.60;99.90;;;;;;4850338;29;20445;-82
2022/03/05 06:19:52;;;;;;;11.57;8.27;;;1.40;99.90;;;;;;4854550;29;20392;-82
2022/03/05 06:22:37;;;;;;;11.80;7.60;;;1.50;99.90;;;;;;4853690;29;20475;-82
2022/03/05 06:25:22;;;;;;;22.17;7.63;;;1.50;99.90;;;;;;4855032;29;20437;-81
2022/03/05 06:28:06;;;;;;;12.30;9.23;;;1.60;99.90;;;;;;4855813;29;20442;-81
2022/03/05 06:30:51;;;;;;;21.87;9.03;;;1.60;99.90;;;;;;4856311;29;20416;-80
2022/03/05 06:33:36;;;;;;;14.77;8.60;;;1.70;99.90;;;;;;4855321;29;20392;-82
2022/03/05 06:36:20;;;;;;;11.07;7.47;;;1.70;99.90;;;;;;4855713;29;20481;-81
2022/03/05 06:39:04;;;;;;;17.90;8.70;;;1.80;99.90;;;;;;4857297;29;20473;-81
2022/03/05 06:41:50;;;;;;;32.47;11.47;;;1.70;99.90;;;;;;4856008;29;20552;-83
2022/03/05 06:44:35;;;;;;;12.40;9.90;;;1.80;99.90;;;;;;4856618;29;20400;-82
2022/03/05 06:47:20;;;;;;;12.63;8.20;;;1.70;99.90;;;;;;4855925;29;20497;-81
2022/03/05 06:50:07;;;;;;;17.53;8.83;;;1.80;99.90;;;;;;4869561;29;20392;-82
2022/03/05 06:52:52;;;;;;;11.23;8.10;;;1.80;99.90;;;;;;4854026;29;20370;-82
2022/03/05 06:55:37;;;;;;;14.13;9.20;;;1.80;99.90;;;;;;4859789;29;20519;-83
2022/03/05 06:58:22;;;;;;;13.00;9.37;;;1.90;99.90;;;;;;4861719;29;20455;-81
2022/03/05 07:01:07;;;;;;;9.63;7.57;;;2.00;99.90;;;;;;4855727;29;20597;-81
2022/03/05 07:03:52;;;;;;;17.57;9.87;;;2.10;99.90;;;;;;4852606;29;20398;-82
2022/03/05 07:06:38;;;;;;;18.77;9.30;;;2.10;99.90;;;;;;4864098;29;20395;-82
2022/03/05 07:09:22;;;;;;;14.40;8.00;;;2.20;99.90;;;;;;4851865;29;20401;-81
2022/03/05 07:12:09;;;;;;;14.80;8.47;;;2.30;99.90;;;;;;4851325;29;20400;-83
2022/03/05 07:14:54;;;;;;;13.30;9.27;;;2.30;99.90;;;;;;4867953;29;20414;-82
2022/03/05 07:17:49;;;;;;;14.93;9.33;;;2.50;99.90;;;;;;4853759;29;20437;-82
2022/03/05 07:20:33;;;;;;;18.80;7.83;;;2.60;99.90;;;;;;4868243;29;21001;-83
2022/03/05 07:23:18;;;;;;;16.07;8.70;;;2.60;99.90;;;;;;4851747;29;20464;-83
2022/03/05 07:26:03;;;;;;;16.00;8.60;;;2.70;99.90;;;;;;4851531;29;20400;-84
2022/03/05 07:28:47;;;;;;;15.50;9.40;;;2.70;99.90;;;;;;4851223;29;20817;-83
2022/03/05 07:31:32;;;;;;;17.60;9.83;;;2.70;99.90;;;;;;4851297;29;20392;-82
2022/03/05 07:34:18;;;;;;;17.03;10.33;;;2.70;99.90;;;;;;4851651;29;20485;-82
2022/03/05 07:37:05;;;;;;;13.50;9.60;;;2.70;99.90;;;;;;4851255;29;20388;-81
2022/03/05 07:39:49;;;;;;;18.90;10.80;;;2.80;99.90;;;;;;4849577;29;20420;-83
2022/03/05 07:42:34;;;;;;;19.03;9.77;;;2.80;99.90;;;;;;4851312;29;20568;-82
2022/03/05 07:45:18;;;;;;;19.53;10.07;;;2.80;99.90;;;;;;4851440;29;20396;-81
2022/03/05 07:48:04;;;;;;;22.73;9.50;;;3.00;99.90;;;;;;4851177;29;20392;-81
2022/03/05 07:50:50;;;;;;;21.63;11.60;;;3.00;99.90;;;;;;4851454;29;20396;-83
2022/03/05 07:53:34;;;;;;;11.27;9.73;;;3.00;99.90;;;;;;4851740;29;20436;-82
2022/03/05 07:56:20;;;;;;;18.10;9.53;;;3.10;99.90;;;;;;4851685;29;20451;-82
2022/03/05 07:59:11;;;;;;;19.30;10.50;;;3.20;99.90;;;;;;4852065;29;20508;-83
2022/03/05 08:01:56;;;;;;;18.77;10.53;;;3.10;99.90;;;;;;4850115;29;20515;-83
2022/03/05 08:04:44;;;;;;;19.93;10.23;;;3.20;99.90;;;;;;4852012;29;20399;-83
2022/03/05 08:07:28;;;;;;;19.47;11.43;;;3.20;99.90;;;;;;4850467;29;20473;-82
2022/03/05 08:10:15;;;;;;;16.53;10.30;;;3.30;99.90;;;;;;4852948;29;20411;-81
2022/03/05 08:12:59;;;;;;;16.50;11.67;;;3.30;99.90;;;;;;4850481;29;20399;-81
2022/03/05 08:15:44;;;;;;;14.10;8.37;;;3.20;99.90;;;;;;4851814;29;20456;-82
2022/03/05 08:18:29;;;;;;;16.67;8.57;;;3.30;99.90;;;;;;4851127;29;20442;-83
2022/03/05 08:21:13;;;;;;;16.00;8.73;;;3.30;99.90;;;;;;4850326;29;20962;-82
2022/03/05 08:23:57;;;;;;;14.77;10.30;;;3.30;99.90;;;;;;4850688;29;20421;-82
2022/03/05 08:26:41;;;;;;;16.40;8.27;;;3.40;99.90;;;;;;4850712;29;20391;-83
2022/03/05 08:29:27;;;;;;;15.80;9.60;;;3.30;99.90;;;;;;4851423;29;20412;-83
2022/03/05 08:32:12;;;;;;;18.00;9.57;;;3.40;99.90;;;;;;4851648;29;20429;-82
2022/03/05 08:34:56;;;;;;;21.47;9.07;;;3.40;99.90;;;;;;4862655;29;20400;-81
2022/03/05 08:37:42;;;;;;;18.20;10.50;;;3.50;99.90;;;;;;4850976;29;20414;-83
2022/03/05 08:40:27;;;;;;;12.33;9.97;;;3.50;99.90;;;;;;4850562;29;20399;-82
2022/03/05 08:43:12;;;;;;;17.27;11.27;;;3.60;99.90;;;;;;4861744;29;20900;-81
2022/03/05 08:45:57;;;;;;;18.27;10.43;;;3.70;99.90;;;;;;4849536;29;20396;-82
2022/03/05 08:48:42;;;;;;;10.83;8.10;;;3.60;99.90;;;;;;4850998;29;20387;-84
2022/03/05 08:51:26;;;;;;;18.50;11.43;;;3.60;99.90;;;;;;4862804;29;20423;-83
2022/03/05 08:54:10;;;;;;;16.97;9.77;;;3.70;99.90;;;;;;4862345;29;20421;-81
2022/03/05 08:56:55;;;;;;;17.53;12.10;;;3.90;99.90;;;;;;4851317;29;20431;-83
2022/03/05 08:59:41;;;;;;;21.30;12.53;;;4.00;99.90;;;;;;4851314;29;20476;-83
2022/03/05 09:02:25;;;;;;;16.50;10.57;;;4.10;99.90;;;;;;4850788;29;20535;-81
2022/03/05 09:05:13;;;;;;;17.10;11.80;;;4.10;99.90;;;;;;4851607;29;20461;-81
2022/03/05 09:07:58;;;;;;;24.20;11.10;;;4.30;99.90;;;;;;4863807;29;20493;-83
2022/03/05 09:10:43;;;;;;;18.87;9.63;;;4.40;99.90;;;;;;4854430;29;20751;-83
2022/03/05 09:13:27;;;;;;;14.87;9.80;;;4.50;99.90;;;;;;4855791;29;20400;-80
2022/03/05 09:16:13;;;;;;;12.30;9.50;;;4.30;99.90;;;;;;4869316;29;20399;-83
2022/03/05 09:18:58;;;;;;;14.40;9.27;;;4.50;99.90;;;;;;4858329;29;20439;-81
2022/03/05 09:21:42;;;;;;;19.63;9.60;;;4.70;99.90;;;;;;4866429;29;20812;-83
2022/03/05 09:24:27;;;;;;;20.10;10.60;;;4.70;99.90;;;;;;4852779;29;20399;-83
2022/03/05 09:27:12;;;;;;;24.30;10.10;;;4.80;99.90;;;;;;4852816;29;20395;-82
2022/03/05 09:29:58;;;;;;;24.90;12.33;;;4.80;99.90;;;;;;4851579;29;20770;-82
2022/03/05 09:32:44;;;;;;;18.10;11.77;;;4.90;99.90;;;;;;4854709;29;20426;-82
2022/03/05 09:35:28;;;;;;;12.70;9.23;;;5.20;99.90;;;;;;4850852;29;20420;-80
2022/03/05 09:38:13;;;;;;;20.53;9.43;;;5.20;99.90;;;;;;4850833;29;20415;-82
2022/03/05 09:41:02;;;;;;;14.70;9.40;;;5.30;99.90;;;;;;4851793;29;20416;-82
2022/03/05 09:43:47;;;;;;;19.27;9.00;;;5.60;99.90;;;;;;4850735;29;20448;-81
2022/03/05 09:46:32;;;;;;;14.33;9.10;;;5.90;99.90;;;;;;4849996;29;20396;-81
2022/03/05 09:49:17;;;;;;;12.30;8.57;;;6.10;99.90;;;;;;4863697;29;20466;-83
2022/03/05 09:52:01;;;;;;;16.73;11.57;;;6.10;99.90;;;;;;4851908;29;20464;-83
2022/03/05 09:54:46;;;;;;;11.50;8.30;;;6.20;99.90;;;;;;4862982;29;20437;-83
2022/03/05 09:57:30;;;;;;;16.40;10.53;;;6.20;99.90;;;;;;4850492;29;20544;-83
2022/03/05 10:00:16;;;;;;;17.27;10.30;;;6.00;99.90;;;;;;4850819;29;20409;-82
2022/03/05 10:03:05;;;;;;;18.67;9.57;;;6.10;99.90;;;;;;4850253;29;20516;-84
2022/03/05 10:05:49;;;;;;;13.83;9.03;;;6.30;99.90;;;;;;4851608;29;20941;-82
2022/03/05 10:08:34;;;;;;;14.13;9.40;;;6.40;99.90;;;;;;4850213;29;20392;-84
2022/03/05 10:11:19;;;;;;;20.40;9.57;;;6.60;99.90;;;;;;4850587;29;20395;-82
2022/03/05 10:14:14;;;;;;;17.23;11.07;;;6.80;99.90;;;;;;4850427;29;20480;-82
2022/03/05 10:17:00;;;;;;;10.73;7.50;;;7.10;99.90;;;;;;4850817;29;20523;-82
2022/03/05 10:19:45;;;;;;;17.60;9.47;;;7.00;99.90;;;;;;4851559;29;20409;-82
2022/03/05 10:22:29;;;;;;;13.30;8.80;;;6.90;99.90;;;;;;4850997;29;20483;-82
2022/03/05 10:25:14;;;;;;;15.30;10.30;;;6.00;99.90;;;;;;4864227;29;20457;-82
2022/03/05 10:28:02;;;;;;;13.70;9.93;;;6.80;99.90;;;;;;4851104;29;20467;-82
2022/03/05 10:30:50;;;;;;;14.80;9.50;;;7.10;99.90;;;;;;4858963;29;20422;-84
2022/03/05 10:33:40;;;;;;;19.10;10.13;;;7.30;99.90;;;;;;4861365;29;20440;-82
2022/03/05 10:36:26;;;;;;;11.13;8.03;;;7.50;99.90;;;;;;4858694;29;20452;-80
2022/03/05 10:39:11;;;;;;;18.90;10.43;;;7.20;99.90;;;;;;4857424;29;20398;-83
2022/03/05 10:41:56;;;;;;;13.07;8.70;;;8.00;99.90;;;;;;4868805;29;20482;-83
2022/03/05 10:44:41;;;;;;;13.87;10.50;;;8.70;99.90;;;;;;4855875;29;20461;-81
2022/03/05 10:47:26;;;;;;;14.67;10.00;;;9.20;99.90;;;;;;4868290;29;20837;-81
2022/03/05 10:50:28;;;;;;;17.60;11.83;;;10.00;99.90;;;;;;4862241;29;20407;-80
2022/03/05 10:53:15;;;;;;;17.93;9.23;;;10.50;99.90;;;;;;4865634;29;20509;-83
2022/03/05 10:56:19;;;;;;;15.33;8.80;;;11.50;99.90;;;;;;4866470;29;20439;-81
2022/03/05 10:59:10;;;;;;;12.50;8.67;;;11.80;99.90;;;;;;4866102;29;20481;-80
2022/03/05 11:01:55;;;;;;;15.90;9.53;;;12.70;95.50;;;;;;4856012;29;20481;-81
2022/03/05 11:04:42;;;;;;;14.13;10.23;;;13.20;94.90;;;;;;4854673;29;20408;-81
2022/03/05 11:07:27;;;;;;;14.13;9.60;;;13.40;92.40;;;;;;4855762;29;20388;-82
2022/03/05 11:10:12;;;;;;;15.07;8.80;;;12.80;91.40;;;;;;4854907;29;20408;-82
2022/03/05 11:12:59;;;;;;;21.87;12.47;;;12.70;87.10;;;;;;4867066;29;20461;-83
2022/03/05 11:15:45;;;;;;;13.77;9.63;;;11.20;89.50;;;;;;4853835;29;20419;-80
2022/03/05 11:18:29;;;;;;;13.70;8.17;;;10.40;92.40;;;;;;4855684;29;20403;-81
2022/03/05 11:21:16;;;;;;;13.23;9.53;;;9.90;93.30;;;;;;4853779;29;20472;-81
2022/03/05 11:24:02;;;;;;;15.40;9.00;;;10.00;95.20;;;;;;4870819;29;20461;-82
2022/03/05 11:26:50;;;;;;;13.07;9.50;;;9.50;97.00;;;;;;4874575;29;20403;-80
2022/03/05 11:29:55;;;;;;;11.83;8.47;;;9.40;96.10;;;;;;4856362;29;20461;-80
2022/03/05 11:32:44;;;;;;;8.27;6.80;;;9.20;95.70;;;;;;4856590;29;20410;-80
2022/03/05 11:35:28;;;;;;;14.47;10.07;;;9.20;96.20;;;;;;4886591;29;20443;-81
2022/03/05 11:38:32;;;;;;;12.40;8.27;;;9.20;96.10;;;;;;4857122;29;20404;-79
2022/03/05 11:41:25;;;;;;;10.87;7.60;;;9.90;94.90;;;;;;4890290;29;20561;-82
2022/03/05 11:44:12;;;;;;;12.33;8.00;;;10.60;91.00;;;;;;4889180;29;20801;-81
2022/03/05 11:47:21;;;;;;;10.47;8.43;;;9.60;93.80;;;;;;4888279;29;20426;-81
2022/03/05 11:50:08;;;;;;;13.20;8.47;;;9.60;91.00;;;;;;4887612;29;20463;-80
2022/03/05 11:53:04;;;;;;;14.43;8.00;;;9.50;90.70;;;;;;4887946;29;20495;-81
2022/03/05 11:55:49;;;;;;;9.43;7.73;;;8.70;94.40;;;;;;4873969;29;20987;-81
2022/03/05 11:58:34;;;;;;;12.97;8.80;;;8.80;92.70;;;;;;4887958;29;20457;-81
2022/03/05 12:01:41;;;;;;;13.80;7.73;;;8.70;93.60;;;;;;4873052;29;20561;-82
2022/03/05 12:04:28;;;;;;;9.53;7.50;;;8.60;93.00;;;;;;4888030;29;20446;-83
2022/03/05 12:07:14;;;;;;;14.40;8.33;;;7.80;93.80;;;;;;4889666;29;20402;-83
2022/03/05 12:10:03;;;;;;;14.37;7.87;;;6.50;94.70;;;;;;4888361;29;20397;-83
2022/03/05 12:12:58;;;;;;;9.43;7.67;;;6.70;97.10;;;;;;4889568;29;20417;-82
2022/03/05 12:15:45;;;;;;;6.50;5.10;;;7.50;96.60;;;;;;4874911;29;20507;-81
2022/03/05 12:18:31;;;;;;;7.40;6.40;;;9.30;91.60;;;;;;4856120;29;20435;-83
2022/03/05 12:21:36;;;;;;;7.60;5.60;;;10.30;81.00;;;;;;4853249;29;20550;-83
2022/03/05 12:24:24;;;;;;;5.50;5.00;;;11.20;72.20;;;;;;4838995;29;20933;-81
2022/03/05 12:27:18;;;;;;;7.07;6.07;;;10.30;66.50;;;;;;4888493;29;20995;-82
2022/03/05 12:30:04;;;;;;;6.97;4.83;;;9.70;69.10;;;;;;4888862;29;20809;-82
2022/03/05 12:32:51;;;;;;;6.90;5.60;;;9.50;69.70;;;;;;4875420;29;20408;-81
2022/03/05 12:35:37;;;;;;;7.73;6.50;;;8.70;72.20;;;;;;4887342;29;20504;-81
2022/03/05 12:38:22;;;;;;;10.90;5.77;;;8.40;79.40;;;;;;4888479;29;20410;-82
2022/03/05 12:41:07;;;;;;;7.70;5.60;;;7.70;77.20;;;;;;4900483;29;20572;-82
2022/03/05 12:43:52;;;;;;;8.33;6.23;;;7.40;78.50;;;;;;4886449;29;20463;-82
2022/03/05 12:46:36;;;;;;;8.37;5.07;;;8.00;80.10;;;;;;4881144;29;20685;-82
2022/03/05 12:49:21;;;;;;;12.33;5.23;;;7.10;78.00;;;;;;4887864;29;20480;-81
2022/03/05 12:52:25;;;;;;;5.50;4.67;;;7.70;80.80;;;;;;4869024;29;20559;-82
2022/03/05 12:55:17;;;;;;;7.90;5.47;;;7.30;78.00;;;;;;4856137;29;20954;-82
2022/03/05 12:58:07;;;;;;;6.10;5.03;;;7.70;80.30;;;;;;4847414;29;20480;-82
2022/03/05 13:00:54;;;;;;;5.27;4.10;;;7.80;81.10;;;;;;4833591;29;20823;-83
2022/03/05 13:03:39;;;;;;;9.10;4.20;;;8.00;74.80;;;;;;4847428;29;20393;-80
2022/03/05 13:06:27;;;;;;;5.90;4.20;;;9.10;69.40;;;;;;4819750;29;20424;-80
2022/03/05 13:09:31;;;;;;;6.90;4.60;;;8.60;70.70;;;;;;4820986;29;20450;-80
2022/03/05 13:12:16;;;;;;;5.30;4.80;;;8.40;68.20;;;;;;4830899;29;20421;-79
2022/03/05 13:15:00;;;;;;;4.20;3.80;;;8.20;68.10;;;;;;4819260;29;20393;-80
2022/03/05 13:17:46;;;;;;;10.27;4.97;;;7.80;70.60;;;;;;4832358;29;20424;-80
2022/03/05 13:20:32;;;;;;;5.23;4.73;;;7.50;69.40;;;;;;4835943;29;20450;-77
2022/03/05 13:23:18;;;;;;;4.33;3.93;;;7.40;72.40;;;;;;4837540;29;20435;-81
2022/03/05 13:26:04;;;;;;;6.27;4.03;;;6.70;71.20;;;;;;4838019;29;20408;-79
2022/03/05 13:28:51;;;;;;;4.40;4.00;;;6.80;71.80;;;;;;4837917;29;20454;-79
2022/03/05 13:31:36;;;;;;;4.93;3.20;;;6.60;74.20;;;;;;4833987;29;20396;-80
2022/03/05 13:34:23;;;;;;;7.10;3.97;;;6.60;72.40;;;;;;4830826;29;20436;-80
2022/03/05 13:37:10;;;;;;;5.53;4.43;;;6.60;75.00;;;;;;4843088;29;20419;-80
2022/03/05 13:40:01;;;;;;;7.10;4.23;;;6.80;76.80;;;;;;4845058;29;20440;-80
2022/03/05 13:42:47;;;;;;;7.13;4.83;;;6.70;76.10;;;;;;4832567;29;20581;-79
2022/03/05 13:45:31;;;;;;;8.40;4.03;;;6.50;73.10;;;;;;4844361;29;20423;-80
2022/03/05 13:48:36;;;;;;;4.53;3.70;;;6.40;73.50;;;;;;4832901;29;20401;-80
2022/03/05 13:51:24;;;;;;;3.60;3.27;;;6.30;74.00;;;;;;4848782;29;20431;-80
2022/03/05 13:54:09;;;;;;;5.90;4.40;;;6.40;74.70;;;;;;4849044;29;20464;-81
2022/03/05 13:56:55;;;;;;;4.23;2.93;;;6.50;76.60;;;;;;4848374;29;20407;-81
2022/03/05 13:59:42;;;;;;;4.37;3.60;;;6.40;74.00;;;;;;4848989;29;20557;-80
2022/03/05 14:02:32;;;;;;;5.73;3.73;;;6.60;74.70;;;;;;4861059;29;20515;-79
2022/03/05 14:05:21;;;;;;;7.10;4.17;;;6.40;76.40;;;;;;4861965;29;20412;-78
2022/03/05 14:08:05;;;;;;;9.20;4.37;;;6.30;78.50;;;;;;4848571;29;20483;-80
2022/03/05 14:10:50;;;;;;;4.83;3.97;;;6.30;80.10;;;;;;4848717;29;21015;-81
2022/03/05 14:13:46;;;;;;;4.00;3.70;;;6.10;77.00;;;;;;4856172;29;20486;-78
2022/03/05 14:16:35;;;;;;;4.40;2.80;;;6.30;77.70;;;;;;4851274;29;20480;-79
2022/03/05 14:19:28;;;;;;;6.07;3.50;;;6.20;76.60;;;;;;4848391;29;20497;-80
2022/03/05 14:22:13;;;;;;;3.83;3.53;;;6.20;81.90;;;;;;4839190;29;20468;-80
2022/03/05 14:24:58;;;;;;;3.93;3.17;;;6.10;80.30;;;;;;4833587;29;20401;-80